Time;durP1;ratioP1;P1;durP2;ratioP2;P2;SDS_P1;SDS_P2;PMS_P1;PMS_P2;Temp;Humidity;BMP_temperature;BMP_pressure;BME280_temperature;BME280_humidity;BME280_pressure;Samples;Min_cycle;Max_cycle;Signal;HPM_P1;HPM_P2
2022/05/06 00:01:44;;;;;;;2.95;2.30;;;22.40;47.00;;;;;;5013372;28;20395;-63
2022/05/06 00:04:10;;;;;;;3.00;2.10;;;22.40;47.00;;;;;;5013666;28;20472;-63
2022/05/06 00:06:35;;;;;;;2.35;2.00;;;22.40;47.00;;;;;;5013594;28;20471;-63
2022/05/06 00:09:03;;;;;;;3.50;2.30;;;22.40;47.00;;;;;;5013684;28;20389;-63
2022/05/06 00:11:29;;;;;;;2.45;2.17;;;22.40;47.10;;;;;;5013394;28;20782;-63
2022/05/06 00:13:57;;;;;;;2.50;2.20;;;22.40;47.10;;;;;;5012458;28;20467;-63
2022/05/06 00:16:25;;;;;;;2.53;2.10;;;22.40;47.10;;;;;;5013446;28;20385;-63
2022/05/06 00:18:51;;;;;;;2.60;2.13;;;22.30;47.00;;;;;;5013441;28;20401;-63
2022/05/06 00:21:17;;;;;;;2.80;2.17;;;22.40;47.10;;;;;;5013466;28;20389;-63
2022/05/06 00:23:43;;;;;;;2.67;2.20;;;22.40;47.00;;;;;;5012963;28;20397;-63
2022/05/06 00:26:09;;;;;;;2.83;2.30;;;22.30;47.10;;;;;;5011701;28;20761;-63
2022/05/06 00:28:35;;;;;;;2.30;2.10;;;22.40;47.20;;;;;;5013226;28;20560;-63
2022/05/06 00:31:02;;;;;;;2.50;2.30;;;22.40;47.70;;;;;;5013275;28;20451;-63
2022/05/06 00:33:29;;;;;;;2.53;2.33;;;22.30;47.20;;;;;;5013043;28;20380;-63
2022/05/06 00:35:56;;;;;;;2.42;2.22;;;22.30;47.10;;;;;;5012721;28;20478;-63
2022/05/06 00:38:22;;;;;;;2.83;2.53;;;22.30;47.20;;;;;;5013075;28;20381;-63
2022/05/06 00:40:48;;;;;;;3.00;2.13;;;22.30;47.10;;;;;;5013098;28;20428;-63
2022/05/06 00:43:14;;;;;;;2.65;2.10;;;22.30;47.20;;;;;;5013011;28;20798;-63
2022/05/06 00:45:53;;;;;;;2.63;2.40;;;22.30;47.20;;;;;;5012640;28;20499;-63
2022/05/06 00:48:22;;;;;;;2.93;2.20;;;22.30;47.10;;;;;;5012942;28;20740;-63
2022/05/06 00:50:48;;;;;;;2.65;2.40;;;22.30;47.20;;;;;;5013001;28;20777;-63
2022/05/06 00:53:15;;;;;;;2.92;2.35;;;22.30;47.20;;;;;;5012752;28;20480;-63
2022/05/06 00:55:41;;;;;;;3.40;2.17;;;22.30;47.20;;;;;;5012602;28;20428;-63
2022/05/06 00:58:07;;;;;;;2.60;2.38;;;22.30;47.30;;;;;;5012581;28;20912;-62
2022/05/06 01:00:33;;;;;;;2.50;2.30;;;22.30;47.30;;;;;;5012606;28;20440;-63
2022/05/06 01:02:58;;;;;;;2.60;2.40;;;22.30;47.30;;;;;;5012687;28;20407;-62
2022/05/06 01:05:24;;;;;;;2.60;2.40;;;22.30;47.20;;;;;;5012497;28;20467;-63
2022/05/06 01:07:51;;;;;;;3.40;2.30;;;22.30;47.30;;;;;;5012137;28;20392;-63
2022/05/06 01:10:18;;;;;;;3.40;2.50;;;22.30;47.20;;;;;;5012359;28;20917;-63
2022/05/06 01:12:44;;;;;;;3.10;2.42;;;22.30;47.20;;;;;;5012505;28;20405;-63
2022/05/06 01:15:24;;;;;;;3.07;2.67;;;22.20;47.20;;;;;;5012507;28;20916;-63
2022/05/06 01:17:51;;;;;;;2.92;2.40;;;22.20;47.20;;;;;;5012029;28;20472;-63
2022/05/06 01:20:18;;;;;;;2.75;2.50;;;22.30;47.30;;;;;;5012315;28;20381;-62
2022/05/06 01:22:50;;;;;;;3.17;2.78;;;22.20;47.30;;;;;;5012355;28;20424;-62
2022/05/06 01:25:16;;;;;;;2.60;2.40;;;22.20;47.30;;;;;;5012164;28;20412;-63
2022/05/06 01:28:10;;;;;;;2.50;2.30;;;22.20;47.30;;;;;;5012078;28;20404;-62
2022/05/06 01:30:42;;;;;;;3.88;2.53;;;22.20;47.30;;;;;;5010862;28;20393;-63
2022/05/06 01:33:12;;;;;;;3.10;2.60;;;22.20;47.30;;;;;;5012140;28;20401;-63
2022/05/06 01:35:52;;;;;;;2.70;2.40;;;22.20;47.30;;;;;;5011859;28;20389;-62
2022/05/06 01:38:31;;;;;;;2.80;2.60;;;22.20;47.40;;;;;;5010768;28;20486;-62
2022/05/06 01:41:02;;;;;;;2.87;2.57;;;22.20;47.40;;;;;;5012028;28;20478;-62
2022/05/06 01:43:35;;;;;;;2.85;2.65;;;22.20;47.40;;;;;;5011846;28;20491;-63
2022/05/06 01:46:02;;;;;;;2.80;2.60;;;22.20;47.40;;;;;;5011531;28;20412;-63
2022/05/06 01:48:28;;;;;;;3.03;2.60;;;22.20;47.40;;;;;;5011820;28;20408;-63
2022/05/06 01:50:55;;;;;;;3.33;2.53;;;22.20;47.30;;;;;;5011929;28;20883;-63
2022/05/06 01:53:21;;;;;;;3.03;2.70;;;22.10;47.20;;;;;;5011784;28;20389;-63
2022/05/06 01:55:47;;;;;;;2.87;2.50;;;22.20;47.30;;;;;;5011424;28;20751;-62
2022/05/06 01:58:13;;;;;;;2.58;2.38;;;22.10;47.40;;;;;;5011754;28;20421;-63
2022/05/06 02:00:38;;;;;;;2.75;2.55;;;22.10;47.30;;;;;;5011783;28;20893;-63
2022/05/06 02:03:05;;;;;;;2.63;2.37;;;22.20;47.40;;;;;;5011782;28;20389;-63
2022/05/06 02:05:31;;;;;;;2.55;2.33;;;22.10;47.40;;;;;;5011610;28;20424;-63
2022/05/06 02:07:57;;;;;;;3.78;2.60;;;22.20;47.50;;;;;;5011219;28;20432;-63
2022/05/06 02:10:25;;;;;;;3.15;2.65;;;22.10;47.40;;;;;;5011934;28;20750;-63
2022/05/06 02:12:50;;;;;;;3.30;2.90;;;22.10;47.40;;;;;;5018101;28;20396;-63
2022/05/06 02:15:18;;;;;;;3.10;2.80;;;22.10;47.40;;;;;;5018128;28;20483;-62
2022/05/06 02:17:44;;;;;;;3.22;2.60;;;22.10;47.40;;;;;;5018253;28;20745;-63
2022/05/06 02:20:11;;;;;;;3.28;2.60;;;22.10;47.50;;;;;;5017887;28;20392;-63
2022/05/06 02:22:42;;;;;;;2.72;2.50;;;22.10;47.50;;;;;;5018244;28;20485;-63
2022/05/06 02:25:09;;;;;;;3.10;2.80;;;22.10;47.50;;;;;;5018023;28;20768;-63
2022/05/06 02:27:38;;;;;;;3.35;2.97;;;22.10;47.50;;;;;;5018157;28;20479;-63
2022/05/06 02:35:37;;;;;;;3.00;2.70;;;22.10;47.50;;;;;;5018291;28;20761;-63
2022/05/06 02:38:05;;;;;;;3.42;2.80;;;22.10;47.50;;;;;;5017592;28;20388;-63
2022/05/06 02:40:32;;;;;;;3.10;2.80;;;22.00;47.40;;;;;;5017910;28;20946;-63
2022/05/06 02:42:58;;;;;;;3.38;2.80;;;22.10;47.50;;;;;;5017986;28;20397;-62
2022/05/06 02:45:24;;;;;;;3.30;3.00;;;22.00;47.40;;;;;;5017822;28;20460;-63
2022/05/06 02:47:49;;;;;;;2.93;2.60;;;22.10;47.50;;;;;;5017559;28;20410;-63
2022/05/06 02:50:15;;;;;;;3.17;2.88;;;22.10;47.40;;;;;;5016593;28;20388;-63
2022/05/06 02:52:40;;;;;;;3.40;2.72;;;22.10;47.40;;;;;;5016581;28;20900;-63
2022/05/06 02:55:06;;;;;;;3.27;2.90;;;22.00;47.40;;;;;;5017847;28;20476;-63
2022/05/06 02:57:32;;;;;;;3.38;2.95;;;22.10;47.50;;;;;;5017738;28;20392;-63
2022/05/06 02:59:57;;;;;;;3.63;2.87;;;22.00;47.40;;;;;;5016184;28;20404;-63
2022/05/06 03:02:23;;;;;;;4.13;3.00;;;22.10;47.50;;;;;;5017747;28;20400;-63
2022/05/06 03:04:49;;;;;;;3.40;2.70;;;22.00;47.50;;;;;;5017723;28;20507;-63
2022/05/06 03:07:15;;;;;;;3.47;2.80;;;22.00;47.60;;;;;;5017511;28;20814;-63
2022/05/06 03:09:41;;;;;;;7.50;3.03;;;22.00;47.70;;;;;;5017624;28;20408;-63
2022/05/06 03:12:07;;;;;;;4.07;2.67;;;22.00;48.40;;;;;;5015621;28;20927;-63
2022/05/06 03:14:33;;;;;;;4.20;3.40;;;22.00;48.40;;;;;;5017645;28;20399;-63
2022/05/06 03:16:59;;;;;;;4.05;3.08;;;22.10;50.00;;;;;;5017624;28;20396;-63
2022/05/06 03:19:25;;;;;;;4.65;3.40;;;22.10;48.60;;;;;;5017538;28;20522;-62
2022/05/06 03:21:54;;;;;;;6.77;3.37;;;22.10;50.30;;;;;;5016635;28;20404;-63
2022/05/06 03:24:20;;;;;;;7.97;3.25;;;22.10;51.20;;;;;;5013539;28;20459;-63
2022/05/06 03:26:46;;;;;;;4.90;3.10;;;22.20;51.70;;;;;;5014950;28;20420;-64
2022/05/06 03:29:12;;;;;;;4.70;3.03;;;22.20;52.10;;;;;;5014422;28;20740;-63
2022/05/06 03:31:38;;;;;;;5.00;3.00;;;22.30;51.90;;;;;;5014347;28;20385;-63
2022/05/06 03:34:05;;;;;;;4.87;3.30;;;22.30;51.60;;;;;;5013887;28;20417;-63
2022/05/06 03:36:32;;;;;;;6.75;3.20;;;22.40;52.00;;;;;;5014238;28;20401;-63
2022/05/06 03:38:58;;;;;;;4.25;3.10;;;22.40;52.00;;;;;;5014257;28;20389;-63
2022/05/06 03:41:23;;;;;;;8.90;3.00;;;22.40;52.00;;;;;;5014099;28;20400;-63
2022/05/06 03:43:49;;;;;;;6.05;3.30;;;22.40;51.90;;;;;;5014025;28;20425;-63
2022/05/06 03:46:15;;;;;;;7.90;3.20;;;22.40;50.90;;;;;;5013660;28;20479;-63
2022/05/06 03:48:40;;;;;;;6.55;3.10;;;22.40;52.10;;;;;;5013956;28;20455;-63
2022/05/06 03:51:22;;;;;;;8.10;3.17;;;22.40;51.60;;;;;;5013896;28;20435;-64
2022/05/06 03:53:51;;;;;;;9.55;3.30;;;22.40;52.10;;;;;;5013684;28;20389;-63
2022/05/06 03:56:18;;;;;;;5.43;3.00;;;22.40;51.90;;;;;;5013772;28;20448;-63
2022/05/06 03:58:44;;;;;;;4.87;2.90;;;22.50;52.00;;;;;;5013762;28;20451;-63
2022/05/06 04:01:10;;;;;;;8.63;2.90;;;22.50;52.10;;;;;;5013598;28;20404;-63
2022/05/06 04:03:36;;;;;;;7.03;3.08;;;22.50;52.10;;;;;;5013873;28;20460;-63
2022/05/06 04:06:02;;;;;;;6.20;3.00;;;22.50;51.60;;;;;;5012751;28;20490;-63
2022/05/06 04:08:28;;;;;;;5.75;3.00;;;22.50;51.30;;;;;;5016488;28;20443;-63
2022/05/06 04:10:54;;;;;;;4.37;3.00;;;22.40;51.30;;;;;;5015804;28;20408;-63
2022/05/06 04:13:20;;;;;;;4.40;3.17;;;22.40;50.80;;;;;;5013184;28;20754;-62
2022/05/06 04:15:46;;;;;;;4.20;2.93;;;22.40;50.00;;;;;;5013218;28;20467;-62
2022/05/06 04:18:12;;;;;;;7.03;2.90;;;22.30;50.50;;;;;;5013171;28;20389;-63
2022/05/06 04:23:31;;;;;;;7.75;3.78;;;22.30;50.10;;;;;;5013477;28;20427;-63
2022/05/06 04:25:58;;;;;;;9.35;4.45;;;22.30;49.80;;;;;;5012653;28;20417;-63
2022/05/06 04:28:25;;;;;;;9.77;4.25;;;22.20;49.20;;;;;;5013030;28;20443;-63
2022/05/06 04:30:51;;;;;;;8.10;4.28;;;22.20;49.20;;;;;;5016560;28;20891;-63
2022/05/06 04:33:22;;;;;;;8.27;4.03;;;22.20;49.00;;;;;;5012596;28;20396;-63
2022/05/06 04:35:48;;;;;;;8.93;3.80;;;22.10;49.10;;;;;;5009730;28;20468;-64
2022/05/06 04:38:14;;;;;;;5.80;3.50;;;22.20;49.80;;;;;;5006533;28;20494;-63
2022/05/06 04:40:40;;;;;;;7.07;3.70;;;22.20;49.20;;;;;;5007667;28;20488;-64
2022/05/06 04:43:07;;;;;;;6.95;3.47;;;22.10;49.00;;;;;;4993466;28;20382;-64
2022/05/06 04:45:37;;;;;;;6.30;3.50;;;22.10;48.70;;;;;;4993352;28;20417;-63
2022/05/06 04:48:05;;;;;;;5.30;3.97;;;22.10;49.10;;;;;;4992716;28;20391;-63
2022/05/06 04:50:35;;;;;;;5.97;4.40;;;22.20;50.90;;;;;;4993075;28;20490;-63
2022/05/06 04:53:01;;;;;;;5.38;4.10;;;22.20;51.80;;;;;;4993597;28;20914;-64
2022/05/06 04:55:27;;;;;;;7.65;4.10;;;22.20;53.60;;;;;;4993408;28;20403;-64
2022/05/06 04:57:52;;;;;;;6.85;4.30;;;22.20;52.20;;;;;;4992401;28;20421;-63
2022/05/06 05:00:20;;;;;;;6.90;3.90;;;22.30;52.30;;;;;;5007745;28;20478;-64
2022/05/06 05:02:46;;;;;;;6.32;4.03;;;22.30;52.30;;;;;;5012829;28;20738;-63
2022/05/06 05:05:11;;;;;;;6.20;3.90;;;22.30;52.10;;;;;;5012451;28;20582;-64
2022/05/06 05:07:37;;;;;;;6.03;3.70;;;22.30;52.40;;;;;;5011866;28;20397;-64
2022/05/06 05:10:04;;;;;;;6.53;3.85;;;22.30;52.20;;;;;;5005795;28;20424;-63
2022/05/06 05:12:31;;;;;;;4.57;4.00;;;22.40;52.30;;;;;;4999303;28;20902;-63
2022/05/06 05:14:56;;;;;;;6.05;4.30;;;22.30;51.90;;;;;;4992484;28;20398;-63
2022/05/06 05:17:22;;;;;;;4.93;3.60;;;22.30;51.20;;;;;;5001320;28;20777;-63
2022/05/06 05:19:48;;;;;;;6.50;3.50;;;22.30;50.90;;;;;;4994643;28;20437;-63
2022/05/06 05:22:13;;;;;;;6.97;3.58;;;22.30;50.50;;;;;;4991982;28;20402;-64
2022/05/06 05:24:39;;;;;;;6.17;3.43;;;22.20;50.00;;;;;;4992281;28;20402;-63
2022/05/06 05:27:05;;;;;;;4.70;3.50;;;22.20;50.10;;;;;;4990968;28;20406;-63
2022/05/06 05:29:31;;;;;;;3.90;3.50;;;22.20;49.70;;;;;;4992187;28;20871;-63
2022/05/06 05:31:57;;;;;;;4.70;3.20;;;22.20;49.70;;;;;;4991893;28;20403;-63
2022/05/06 05:34:23;;;;;;;3.97;3.45;;;22.20;49.60;;;;;;4992212;28;20417;-63
2022/05/06 05:36:48;;;;;;;5.67;3.40;;;22.20;49.50;;;;;;4992197;28;20876;-63
2022/05/06 05:39:14;;;;;;;4.53;3.58;;;22.20;49.20;;;;;;4992002;28;20394;-63
2022/05/06 05:41:40;;;;;;;3.90;3.47;;;22.20;49.30;;;;;;4990757;28;20482;-63
2022/05/06 05:49:34;;;;;;;4.18;3.78;;;22.20;49.00;;;;;;4993601;28;21025;-64
2022/05/06 05:52:00;;;;;;;4.50;3.33;;;22.10;48.90;;;;;;5011156;28;20910;-63
2022/05/06 05:54:26;;;;;;;3.70;3.40;;;22.10;48.80;;;;;;5011502;28;20499;-63
2022/05/06 05:56:52;;;;;;;3.47;3.17;;;22.10;49.60;;;;;;5011383;28;20420;-63
2022/05/06 05:59:18;;;;;;;4.07;3.25;;;22.20;48.40;;;;;;4985436;28;20398;-63
2022/05/06 06:01:45;;;;;;;3.80;3.28;;;22.20;48.10;;;;;;4991797;28;20386;-63
2022/05/06 06:04:11;;;;;;;3.83;3.40;;;22.20;48.50;;;;;;4991303;28;20502;-63
2022/05/06 06:06:37;;;;;;;3.67;3.30;;;22.20;48.60;;;;;;4990512;28;20421;-63
2022/05/06 06:09:03;;;;;;;4.90;3.40;;;22.20;48.50;;;;;;4991235;28;20394;-63
2022/05/06 06:11:28;;;;;;;4.80;3.00;;;22.20;49.20;;;;;;4990608;28;20476;-63
2022/05/06 06:13:54;;;;;;;3.63;3.13;;;22.30;48.40;;;;;;4991379;28;20429;-63
2022/05/06 06:16:20;;;;;;;3.97;3.28;;;22.30;48.00;;;;;;4991486;28;20437;-63
2022/05/06 06:18:47;;;;;;;3.57;3.20;;;22.20;47.50;;;;;;4991676;28;20426;-64
2022/05/06 06:21:12;;;;;;;4.35;3.25;;;22.20;47.50;;;;;;4991628;28;20429;-63
2022/05/06 06:23:38;;;;;;;3.50;3.20;;;22.20;47.50;;;;;;4991520;28;20418;-63
2022/05/06 06:26:04;;;;;;;3.13;2.80;;;22.20;47.90;;;;;;4990663;28;20980;-64
2022/05/06 06:28:29;;;;;;;3.97;3.10;;;22.20;47.90;;;;;;4988896;28;20426;-63
2022/05/06 06:30:55;;;;;;;4.28;3.08;;;22.30;47.40;;;;;;4991712;28;20478;-63
2022/05/06 06:33:21;;;;;;;4.30;3.10;;;22.30;47.10;;;;;;4991707;28;20536;-63
2022/05/06 06:35:46;;;;;;;3.80;3.05;;;22.20;47.20;;;;;;4989937;28;20456;-64
2022/05/06 06:38:12;;;;;;;3.35;2.97;;;22.20;47.30;;;;;;4991203;28;20905;-63
2022/05/06 06:40:38;;;;;;;3.37;2.90;;;22.20;48.40;;;;;;4991741;28;20403;-64
2022/05/06 06:43:06;;;;;;;3.25;2.95;;;22.30;47.30;;;;;;4991828;28;20394;-63
2022/05/06 06:45:32;;;;;;;3.22;2.78;;;22.30;47.10;;;;;;4991313;28;20427;-64
2022/05/06 06:47:58;;;;;;;3.40;3.10;;;22.30;47.10;;;;;;4991294;28;20409;-63
2022/05/06 06:50:24;;;;;;;3.28;2.97;;;22.30;47.10;;;;;;4991159;28;20402;-63
2022/05/06 06:52:50;;;;;;;3.30;3.00;;;22.20;47.10;;;;;;4991462;28;20406;-63
2022/05/06 06:55:17;;;;;;;3.67;3.15;;;22.20;47.10;;;;;;4991401;28;20395;-63
2022/05/06 06:57:43;;;;;;;3.25;2.95;;;22.30;47.20;;;;;;4992779;28;20378;-63
2022/05/06 07:00:09;;;;;;;3.45;3.15;;;22.30;47.00;;;;;;4994298;28;20770;-63
2022/05/06 07:02:38;;;;;;;3.30;3.00;;;22.30;46.90;;;;;;4995135;28;20870;-63
2022/05/06 07:05:04;;;;;;;3.25;2.97;;;22.30;46.90;;;;;;5010042;28;20414;-63
2022/05/06 07:12:58;;;;;;;3.30;3.00;;;22.30;47.20;;;;;;4995082;28;20807;-64
2022/05/06 07:15:24;;;;;;;4.83;3.90;;;22.30;47.10;;;;;;4993437;28;20948;-63
2022/05/06 07:17:49;;;;;;;5.55;3.70;;;22.30;47.20;;;;;;4994285;28;20445;-63
2022/05/06 07:20:16;;;;;;;4.18;3.75;;;22.30;47.20;;;;;;4994306;28;20461;-76
2022/05/06 07:22:41;;;;;;;3.72;3.40;;;22.30;47.10;;;;;;4994524;28;20390;-64
2022/05/06 07:25:08;;;;;;;4.05;3.22;;;22.20;47.10;;;;;;4994005;28;20795;-64
2022/05/06 07:27:35;;;;;;;3.50;3.20;;;22.20;47.30;;;;;;4994089;28;20390;-64
2022/05/06 07:30:04;;;;;;;3.50;3.20;;;22.30;47.00;;;;;;4994188;28;20394;-63
2022/05/06 07:32:30;;;;;;;3.88;3.40;;;22.30;47.00;;;;;;4994402;28;20394;-64
2022/05/06 07:34:56;;;;;;;3.45;3.05;;;22.30;47.40;;;;;;4994407;28;20397;-64
2022/05/06 07:37:22;;;;;;;3.88;3.58;;;22.30;46.90;;;;;;4994524;28;20399;-63
2022/05/06 07:39:47;;;;;;;4.20;3.50;;;22.20;47.20;;;;;;4994054;28;20640;-63
2022/05/06 07:42:13;;;;;;;4.65;3.92;;;22.20;47.60;;;;;;4993710;28;20406;-63
2022/05/06 07:44:39;;;;;;;4.93;3.87;;;22.30;48.30;;;;;;4994064;28;20405;-62
2022/05/06 07:47:05;;;;;;;4.85;4.38;;;22.30;47.70;;;;;;4993903;28;20486;-64
2022/05/06 07:49:31;;;;;;;4.87;3.60;;;22.30;49.30;;;;;;4994127;28;20391;-64
2022/05/06 07:51:56;;;;;;;4.90;3.75;;;22.40;47.50;;;;;;4994166;28;20402;-63
2022/05/06 07:54:22;;;;;;;5.35;3.70;;;22.30;47.20;;;;;;4993337;28;20969;-64
2022/05/06 07:56:48;;;;;;;4.60;4.03;;;22.30;49.80;;;;;;4993396;28;20398;-64
2022/05/06 07:59:13;;;;;;;4.90;3.90;;;22.30;49.80;;;;;;4993249;28;20399;-63
2022/05/06 08:04:32;;;;;;;4.63;3.45;;;22.40;49.40;;;;;;4994203;28;20389;-63
2022/05/06 08:06:58;;;;;;;5.38;3.38;;;22.30;47.50;;;;;;4994486;28;20457;-63
2022/05/06 08:09:24;;;;;;;5.38;3.60;;;22.30;47.00;;;;;;4993564;28;20478;-63
2022/05/06 08:11:50;;;;;;;5.10;3.85;;;22.30;48.60;;;;;;4993454;28;20504;-64
2022/05/06 08:14:17;;;;;;;4.78;3.65;;;22.30;49.40;;;;;;4993472;28;20474;-64
2022/05/06 08:16:44;;;;;;;5.45;3.80;;;22.40;49.30;;;;;;4993688;28;20402;-63
2022/05/06 08:19:09;;;;;;;4.32;3.70;;;22.40;48.40;;;;;;4993721;28;20387;-63
2022/05/06 08:21:35;;;;;;;4.60;3.80;;;22.30;47.40;;;;;;4994058;28;20929;-63
2022/05/06 08:24:02;;;;;;;4.30;3.70;;;22.40;47.10;;;;;;4993781;28;20770;-64
2022/05/06 08:26:28;;;;;;;4.33;3.57;;;22.30;47.90;;;;;;4992532;28;20916;-63
2022/05/06 08:28:53;;;;;;;3.85;3.30;;;22.30;48.40;;;;;;4993542;28;20481;-64
2022/05/06 08:31:20;;;;;;;5.20;3.80;;;22.40;46.70;;;;;;4993408;28;20506;-63
2022/05/06 08:33:45;;;;;;;3.92;3.63;;;22.40;47.20;;;;;;4991851;28;20906;-63
2022/05/06 08:36:11;;;;;;;3.90;3.45;;;22.40;47.20;;;;;;4992756;28;20410;-63
2022/05/06 08:38:37;;;;;;;4.00;3.47;;;22.30;46.70;;;;;;4993189;28;20391;-63
2022/05/06 08:41:03;;;;;;;4.47;3.60;;;22.30;46.80;;;;;;4993086;28;20449;-63
2022/05/06 08:43:28;;;;;;;3.78;3.38;;;22.30;46.80;;;;;;4992985;28;20906;-63
2022/05/06 08:51:32;;;;;;;4.18;3.28;;;22.40;46.50;;;;;;4993084;28;20445;-63
2022/05/06 08:53:58;;;;;;;3.85;3.35;;;22.30;46.60;;;;;;4993003;28;20394;-63
2022/05/06 08:56:23;;;;;;;3.75;3.35;;;22.30;46.60;;;;;;4992428;28;20406;-63
2022/05/06 08:58:49;;;;;;;3.67;3.38;;;22.40;46.70;;;;;;4992858;28;20413;-63
2022/05/06 09:01:20;;;;;;;4.05;3.30;;;22.40;46.50;;;;;;4992844;28;20952;-63
2022/05/06 09:03:49;;;;;;;3.83;3.42;;;22.50;46.40;;;;;;4992757;28;20382;-63
2022/05/06 09:06:20;;;;;;;3.80;3.50;;;22.40;46.50;;;;;;4992092;28;20426;-63
2022/05/06 09:08:47;;;;;;;4.13;3.83;;;22.40;46.60;;;;;;4992261;28;20394;-63
2022/05/06 09:11:13;;;;;;;3.80;3.42;;;22.40;46.70;;;;;;4991892;28;20418;-64
2022/05/06 09:13:55;;;;;;;3.72;3.42;;;22.40;46.80;;;;;;4992248;28;20391;-63
2022/05/06 09:16:41;;;;;;;4.00;3.60;;;22.50;46.40;;;;;;4992141;28;20395;-64
2022/05/06 09:19:12;;;;;;;3.80;3.40;;;22.50;46.30;;;;;;4992539;28;20938;-64
2022/05/06 09:21:41;;;;;;;3.88;3.47;;;22.50;46.50;;;;;;4991704;28;20537;-64
2022/05/06 09:24:19;;;;;;;4.10;3.70;;;22.40;46.60;;;;;;4992274;28;20391;-64
2022/05/06 09:27:05;;;;;;;3.78;3.47;;;22.40;46.60;;;;;;4992603;28;20422;-64
2022/05/06 09:29:39;;;;;;;4.10;3.70;;;22.40;46.50;;;;;;4992399;28;20390;-64
2022/05/06 09:32:24;;;;;;;4.17;3.50;;;22.50;46.90;;;;;;4992247;28;20398;-63
2022/05/06 09:34:55;;;;;;;4.20;3.42;;;22.50;46.60;;;;;;4992519;28;20491;-63
2022/05/06 09:37:42;;;;;;;3.80;3.50;;;22.40;46.50;;;;;;4992320;28;20404;-63
2022/05/06 09:40:10;;;;;;;3.70;3.40;;;22.40;46.50;;;;;;5007179;28;20397;-64
2022/05/06 09:42:41;;;;;;;3.97;3.67;;;22.40;47.00;;;;;;4992394;28;20394;-64
2022/05/06 09:45:08;;;;;;;3.80;3.50;;;22.50;46.70;;;;;;5006685;28;20417;-64
2022/05/06 09:47:34;;;;;;;4.03;3.63;;;22.50;46.60;;;;;;4992297;28;20478;-64
2022/05/06 09:50:01;;;;;;;3.53;3.22;;;22.50;47.00;;;;;;4992192;28;20382;-63
2022/05/06 09:52:27;;;;;;;4.07;3.67;;;22.50;46.40;;;;;;4991666;28;20394;-63
2022/05/06 09:54:53;;;;;;;3.80;3.50;;;22.40;46.50;;;;;;4990959;28;20815;-63
2022/05/06 09:57:19;;;;;;;4.00;3.60;;;22.40;46.70;;;;;;5007110;28;20402;-64
2022/05/06 09:59:46;;;;;;;3.90;3.60;;;22.50;46.60;;;;;;4992125;28;20441;-63
2022/05/06 10:02:13;;;;;;;3.72;3.42;;;22.50;46.50;;;;;;4991536;28;20878;-63
2022/05/06 10:04:39;;;;;;;3.83;3.50;;;22.50;46.20;;;;;;4992072;28;20413;-63
2022/05/06 10:07:16;;;;;;;3.67;3.35;;;22.50;46.30;;;;;;5006994;28;20426;-63
2022/05/06 10:10:08;;;;;;;3.90;3.60;;;22.50;46.40;;;;;;4991749;28;20382;-64
2022/05/06 10:12:40;;;;;;;3.90;3.50;;;22.40;46.40;;;;;;4991648;28;20501;-64
2022/05/06 10:15:08;;;;;;;4.00;3.60;;;22.50;46.50;;;;;;4991957;28;20390;-64
2022/05/06 10:17:48;;;;;;;4.00;3.60;;;22.50;47.00;;;;;;4991822;28;20464;-64
2022/05/06 10:20:36;;;;;;;4.10;3.80;;;22.50;46.10;;;;;;4991533;28;20401;-64
2022/05/06 10:23:07;;;;;;;4.05;3.70;;;22.50;46.30;;;;;;5007070;28;20810;-63
2022/05/06 10:25:42;;;;;;;3.95;3.65;;;22.50;46.40;;;;;;4991468;28;20518;-64
2022/05/06 10:34:23;;;;;;;4.07;3.70;;;22.50;46.20;;;;;;4978258;28;20762;-63
2022/05/06 10:36:51;;;;;;;4.37;3.97;;;22.50;46.20;;;;;;4996077;28;20474;-63
2022/05/06 10:39:43;;;;;;;4.18;3.78;;;22.50;46.30;;;;;;4995879;28;20417;-64
2022/05/06 10:42:16;;;;;;;4.10;3.80;;;22.50;46.30;;;;;;4995810;28;20497;-63
2022/05/06 10:44:49;;;;;;;4.15;3.78;;;22.50;46.60;;;;;;4997418;28;20473;-63
2022/05/06 10:47:15;;;;;;;4.03;3.63;;;22.50;46.30;;;;;;4996889;28;20406;-63
2022/05/06 10:49:46;;;;;;;4.63;4.22;;;22.50;46.20;;;;;;4995567;28;20452;-63
2022/05/06 10:52:24;;;;;;;7.20;6.00;;;22.50;46.40;;;;;;4995118;28;20409;-63
2022/05/06 10:54:55;;;;;;;8.55;7.65;;;22.40;46.80;;;;;;4995326;28;20432;-63
2022/05/06 10:57:25;;;;;;;9.73;7.80;;;22.40;47.00;;;;;;4995166;28;20390;-63
2022/05/06 10:59:52;;;;;;;6.57;5.97;;;22.40;47.40;;;;;;4995445;28;20481;-63
2022/05/06 11:02:22;;;;;;;8.38;6.63;;;22.50;48.50;;;;;;4995094;28;20425;-63
2022/05/06 11:04:59;;;;;;;8.07;6.90;;;22.50;48.50;;;;;;4994866;28;20894;-64
2022/05/06 11:07:25;;;;;;;9.88;6.55;;;22.50;48.90;;;;;;4994797;28;20453;-64
2022/05/06 11:09:51;;;;;;;8.23;6.10;;;22.50;50.40;;;;;;4999549;28;20399;-64
2022/05/06 11:12:43;;;;;;;8.40;6.13;;;22.60;50.10;;;;;;4975163;28;20550;-63
2022/05/06 11:15:10;;;;;;;8.80;6.07;;;22.70;50.70;;;;;;4981491;28;20872;-64
2022/05/06 11:17:36;;;;;;;9.95;5.78;;;22.80;50.30;;;;;;4983153;28;20453;-63
2022/05/06 11:20:21;;;;;;;6.47;5.63;;;22.70;50.60;;;;;;4983654;28;20401;-63
2022/05/06 11:23:03;;;;;;;6.90;5.90;;;22.80;50.90;;;;;;4983411;28;20907;-64
2022/05/06 11:25:31;;;;;;;6.65;5.70;;;22.80;50.70;;;;;;4975780;28;20440;-63
2022/05/06 11:27:58;;;;;;;8.30;5.88;;;22.70;50.70;;;;;;4974687;28;20408;-63
2022/05/06 11:30:27;;;;;;;6.88;5.53;;;22.70;50.40;;;;;;4974418;28;21034;-63
2022/05/06 11:33:03;;;;;;;7.40;5.40;;;22.80;50.80;;;;;;4974703;28;20404;-63
2022/05/06 11:35:40;;;;;;;7.67;5.60;;;22.80;50.30;;;;;;4975158;28;20554;-63
2022/05/06 11:38:06;;;;;;;7.45;5.75;;;22.80;50.20;;;;;;4975344;28;20412;-62
2022/05/06 11:40:36;;;;;;;6.68;5.57;;;22.80;49.90;;;;;;4973577;28;20392;-63
2022/05/06 11:43:07;;;;;;;6.07;5.45;;;22.70;50.60;;;;;;4974929;28;20483;-62
2022/05/06 11:48:22;;;;;;;5.75;5.20;;;22.90;50.60;;;;;;4974994;28;20443;-62
2022/05/06 11:50:55;;;;;;;5.97;5.30;;;22.80;50.30;;;;;;4975234;28;20397;-62
2022/05/06 11:53:21;;;;;;;6.50;5.65;;;22.80;50.40;;;;;;4975097;28;20415;-63
2022/05/06 11:55:47;;;;;;;7.00;5.40;;;22.80;49.80;;;;;;4975092;28;20404;-63
2022/05/06 11:58:15;;;;;;;5.60;4.97;;;22.80;50.50;;;;;;4974661;28;20864;-62
2022/05/06 12:00:42;;;;;;;7.68;5.55;;;22.80;50.40;;;;;;4974697;28;20392;-63
2022/05/06 12:03:09;;;;;;;6.15;4.78;;;22.90;50.30;;;;;;4974945;28;20388;-63
2022/05/06 12:05:36;;;;;;;5.10;4.60;;;22.90;49.90;;;;;;4974683;28;20442;-63
2022/05/06 12:08:02;;;;;;;5.70;5.20;;;22.90;49.90;;;;;;4974808;28;20872;-63
2022/05/06 12:10:30;;;;;;;5.72;5.03;;;22.80;49.80;;;;;;4974025;28;20384;-63
2022/05/06 12:12:59;;;;;;;6.88;4.95;;;22.90;50.30;;;;;;4974885;28;20503;-62
2022/05/06 12:15:33;;;;;;;6.00;5.00;;;22.90;49.90;;;;;;4974607;28;20868;-62
2022/05/06 12:18:18;;;;;;;5.72;4.88;;;23.00;49.10;;;;;;4974675;28;20447;-62
2022/05/06 12:20:46;;;;;;;6.15;5.10;;;22.90;49.00;;;;;;4974559;28;20424;-62
2022/05/06 12:23:13;;;;;;;7.40;5.30;;;22.90;49.50;;;;;;4974491;28;20819;-62
2022/05/06 12:25:41;;;;;;;7.63;5.03;;;22.90;49.50;;;;;;4974554;28;20462;-63
2022/05/06 12:28:09;;;;;;;5.97;5.15;;;22.90;49.40;;;;;;4975654;28;20402;-63
2022/05/06 12:30:37;;;;;;;7.18;5.03;;;23.00;49.30;;;;;;4976306;28;20380;-63
2022/05/06 12:33:11;;;;;;;6.53;5.43;;;23.00;49.00;;;;;;4976299;28;20456;-62
2022/05/06 12:35:55;;;;;;;7.28;5.22;;;23.00;49.10;;;;;;4974155;28;20392;-62
2022/05/06 12:38:21;;;;;;;7.37;5.40;;;23.00;49.10;;;;;;4973833;28;20400;-62
2022/05/06 12:40:49;;;;;;;7.95;5.15;;;23.00;49.40;;;;;;4974364;28;20381;-62
2022/05/06 12:43:15;;;;;;;7.82;5.43;;;23.00;49.40;;;;;;4974011;28;20947;-62
2022/05/06 12:46:07;;;;;;;8.37;5.57;;;23.00;49.50;;;;;;4974237;28;20434;-62
2022/05/06 12:51:16;;;;;;;6.78;5.03;;;22.90;49.40;;;;;;4973747;28;20749;-62
2022/05/06 12:53:42;;;;;;;9.00;4.97;;;22.90;49.30;;;;;;4973728;28;20388;-62
2022/05/06 12:56:17;;;;;;;20.10;6.10;;;22.90;49.90;;;;;;4973511;28;20396;-62
2022/05/06 12:58:43;;;;;;;24.15;6.43;;;22.90;50.20;;;;;;4973636;28;20394;-63
2022/05/06 13:01:09;;;;;;;17.92;6.43;;;22.90;50.90;;;;;;4974341;28;20400;-62
2022/05/06 13:03:34;;;;;;;12.15;5.85;;;22.90;52.30;;;;;;4991572;28;20394;-62
2022/05/06 13:06:00;;;;;;;13.60;5.70;;;22.90;51.20;;;;;;4990422;28;20416;-62
2022/05/06 13:08:27;;;;;;;10.90;5.70;;;22.90;50.70;;;;;;4991956;28;20449;-63
2022/05/06 13:10:53;;;;;;;11.13;5.90;;;22.90;50.40;;;;;;4990803;28;20825;-63
2022/05/06 13:13:19;;;;;;;13.45;5.55;;;22.80;50.40;;;;;;4992481;28;20386;-62
2022/05/06 13:15:44;;;;;;;11.40;5.75;;;22.80;50.60;;;;;;4992024;28;20875;-63
2022/05/06 13:18:11;;;;;;;9.37;5.50;;;22.80;51.20;;;;;;4992228;28;20444;-62
2022/05/06 13:20:36;;;;;;;11.07;6.25;;;22.80;50.80;;;;;;4991707;28;20410;-62
2022/05/06 13:23:02;;;;;;;10.03;6.13;;;22.80;50.60;;;;;;4992194;28;20835;-63
2022/05/06 13:25:28;;;;;;;9.30;5.90;;;22.80;50.70;;;;;;4992135;28;20763;-61
2022/05/06 13:27:54;;;;;;;10.27;5.68;;;22.80;49.90;;;;;;4994198;28;20412;-62
2022/05/06 13:30:20;;;;;;;13.52;5.75;;;22.80;50.40;;;;;;4985409;28;20406;-64